Time;durP1;ratioP1;P1;durP2;ratioP2;P2;SDS_P1;SDS_P2;PMS_P1;PMS_P2;Temp;Humidity;BMP_temperature;BMP_pressure;BME280_temperature;BME280_humidity;BME280_pressure;Samples;Min_cycle;Max_cycle;Signal;HPM_P1;HPM_P2
2021/09/27 00:02:20;;;;;;;4.93;3.95;;;23.30;53.30;;;;;;5025017;28;20107;-68
2021/09/27 00:04:47;;;;;;;4.22;3.80;;;23.30;53.30;;;;;;5031256;28;20049;-68
2021/09/27 00:07:14;;;;;;;4.75;3.80;;;23.30;53.30;;;;;;5031128;28;20175;-68
2021/09/27 00:09:43;;;;;;;5.72;3.92;;;23.30;53.30;;;;;;5025936;28;20056;-67
2021/09/27 00:12:11;;;;;;;4.85;3.67;;;23.30;53.30;;;;;;5023114;28;20115;-68
2021/09/27 00:14:40;;;;;;;5.30;3.80;;;23.30;53.30;;;;;;5031071;28;20494;-68
2021/09/27 00:17:07;;;;;;;4.10;3.70;;;23.30;53.30;;;;;;5031121;28;20088;-67
2021/09/27 00:19:36;;;;;;;3.95;3.55;;;23.30;53.30;;;;;;5028346;28;20091;-67
2021/09/27 00:22:05;;;;;;;6.20;4.18;;;23.30;53.20;;;;;;5022780;28;20136;-68
2021/09/27 00:24:33;;;;;;;3.65;3.35;;;23.30;53.20;;;;;;5030684;28;20079;-68
2021/09/27 00:27:01;;;;;;;4.15;3.55;;;23.30;53.20;;;;;;5030961;28;20072;-68
2021/09/27 00:29:28;;;;;;;4.70;4.03;;;23.30;53.20;;;;;;5027981;28;20525;-67
2021/09/27 00:31:56;;;;;;;3.85;3.55;;;23.30;53.20;;;;;;5020891;28;20046;-67
2021/09/27 00:34:23;;;;;;;4.00;3.60;;;23.30;53.20;;;;;;5030909;28;20053;-68
2021/09/27 00:36:50;;;;;;;5.13;3.45;;;23.30;53.20;;;;;;5030146;28;20136;-68
2021/09/27 00:39:18;;;;;;;5.70;3.65;;;23.30;53.20;;;;;;5030539;28;20081;-68
2021/09/27 00:41:45;;;;;;;4.38;3.97;;;23.30;53.20;;;;;;5019048;28;20152;-68
2021/09/27 00:44:12;;;;;;;4.40;3.58;;;23.30;53.20;;;;;;5030067;28;20136;-68
2021/09/27 00:46:40;;;;;;;4.70;3.90;;;23.30;53.20;;;;;;5030285;28;20049;-68
2021/09/27 00:49:07;;;;;;;5.35;3.95;;;23.30;53.20;;;;;;5030067;28;20176;-68
2021/09/27 00:51:40;;;;;;;3.90;3.50;;;23.30;53.30;;;;;;5017028;28;20128;-68
2021/09/27 00:54:13;;;;;;;4.75;3.85;;;23.30;53.30;;;;;;5030296;28;20454;-68
2021/09/27 00:56:44;;;;;;;6.00;3.92;;;23.30;53.30;;;;;;5029960;28;20141;-68
2021/09/27 00:59:12;;;;;;;5.00;4.05;;;23.30;53.30;;;;;;5013267;28;20442;-68
2021/09/27 01:01:39;;;;;;;4.43;3.90;;;23.30;53.90;;;;;;5018233;28;20134;-67
2021/09/27 01:04:08;;;;;;;5.40;4.07;;;23.30;53.30;;;;;;5029732;28;20418;-68
2021/09/27 01:07:14;;;;;;;4.00;3.55;;;23.30;53.30;;;;;;5029217;28;20410;-68
2021/09/27 01:10:12;;;;;;;6.47;4.28;;;23.20;53.30;;;;;;5026012;28;20541;-67
2021/09/27 01:13:06;;;;;;;4.80;4.18;;;23.30;53.30;;;;;;5023655;28;20085;-68
2021/09/27 01:16:12;;;;;;;4.50;4.10;;;23.30;53.40;;;;;;5030109;28;20049;-68
2021/09/27 01:19:07;;;;;;;4.25;3.55;;;23.20;53.30;;;;;;5028160;28;20585;-68
2021/09/27 01:22:04;;;;;;;4.05;3.40;;;23.20;53.30;;;;;;5018023;28;20077;-68
2021/09/27 01:25:11;;;;;;;4.22;3.85;;;23.20;53.30;;;;;;5027280;28;20050;-70
2021/09/27 01:28:10;;;;;;;4.90;3.75;;;23.20;53.30;;;;;;5026841;28;20053;-68
2021/09/27 01:31:16;;;;;;;4.15;3.75;;;23.20;53.30;;;;;;5019263;28;20056;-67
2021/09/27 01:34:04;;;;;;;3.92;3.60;;;23.20;53.30;;;;;;5029143;28;20145;-68
2021/09/27 01:36:54;;;;;;;4.70;3.95;;;23.20;53.30;;;;;;5029467;28;20159;-68
2021/09/27 01:39:36;;;;;;;3.97;3.67;;;23.20;53.40;;;;;;5029468;28;20136;-68
2021/09/27 01:42:16;;;;;;;4.55;4.03;;;23.20;53.40;;;;;;5020979;28;20080;-68
2021/09/27 01:45:00;;;;;;;3.97;3.60;;;23.20;53.40;;;;;;5029029;28;20056;-68
2021/09/27 01:47:38;;;;;;;4.38;3.97;;;23.20;53.40;;;;;;5028235;28;20049;-68
2021/09/27 01:50:26;;;;;;;4.05;3.60;;;23.20;53.40;;;;;;5024052;28;20144;-67
2021/09/27 01:53:09;;;;;;;4.80;3.90;;;23.20;53.40;;;;;;5025907;28;20128;-68
2021/09/27 01:55:58;;;;;;;3.88;3.47;;;23.20;53.40;;;;;;5027976;28;20049;-70
2021/09/27 01:58:48;;;;;;;4.28;3.88;;;23.20;53.30;;;;;;5027857;28;20084;-68
2021/09/27 02:01:38;;;;;;;5.43;3.70;;;23.30;53.40;;;;;;5017618;28;20529;-67
2021/09/27 02:04:14;;;;;;;4.30;3.90;;;23.30;53.40;;;;;;5028928;28;20050;-68
2021/09/27 02:06:47;;;;;;;5.72;4.32;;;23.20;53.30;;;;;;5028573;28;20133;-68
2021/09/27 02:09:21;;;;;;;4.25;3.63;;;23.30;53.30;;;;;;5028537;28;20084;-68
2021/09/27 02:11:53;;;;;;;4.45;3.28;;;23.30;53.30;;;;;;5017718;28;20049;-68
2021/09/27 02:14:33;;;;;;;4.03;3.63;;;23.30;53.30;;;;;;5027170;28;20506;-68
2021/09/27 02:17:11;;;;;;;4.63;4.20;;;23.20;53.30;;;;;;5028392;28;20046;-68
2021/09/27 02:20:03;;;;;;;5.85;3.20;;;23.20;53.30;;;;;;5024199;28;20053;-67
2021/09/27 02:22:54;;;;;;;3.75;3.35;;;23.20;53.30;;;;;;5020445;28;20498;-68
2021/09/27 02:25:32;;;;;;;4.07;3.67;;;23.20;53.30;;;;;;5028309;28;20068;-68
2021/09/27 02:28:03;;;;;;;3.92;3.63;;;23.20;53.30;;;;;;5028453;28;20129;-68
2021/09/27 02:30:42;;;;;;;4.13;3.63;;;23.20;53.40;;;;;;5020888;28;20141;-67
2021/09/27 02:33:34;;;;;;;3.90;3.60;;;23.20;53.40;;;;;;5026007;28;20150;-68
2021/09/27 02:36:15;;;;;;;3.90;3.50;;;23.20;53.40;;;;;;5028629;28;20051;-68
2021/09/27 02:39:10;;;;;;;3.47;3.17;;;23.20;53.30;;;;;;5027707;28;20095;-68
2021/09/27 02:41:51;;;;;;;4.07;3.60;;;23.20;53.40;;;;;;5017673;28;20485;-68
2021/09/27 02:44:19;;;;;;;4.60;3.90;;;23.20;53.40;;;;;;5026965;28;20053;-68
2021/09/27 02:46:54;;;;;;;3.42;3.20;;;23.20;53.40;;;;;;5028252;28;20060;-68
2021/09/27 02:49:27;;;;;;;4.63;3.50;;;23.20;53.40;;;;;;5027552;28;20140;-68
2021/09/27 02:51:58;;;;;;;3.58;3.28;;;23.20;53.40;;;;;;5019750;28;20050;-68
2021/09/27 02:54:41;;;;;;;4.15;3.42;;;23.20;53.30;;;;;;5026712;28;20053;-68
2021/09/27 02:57:33;;;;;;;4.40;3.70;;;23.20;53.30;;;;;;5026236;28;20471;-68
2021/09/27 03:00:17;;;;;;;4.03;3.50;;;23.20;53.30;;;;;;5023678;28;20265;-68
2021/09/27 03:03:01;;;;;;;4.10;3.70;;;23.20;53.30;;;;;;5024924;28;20049;-67
2021/09/27 03:06:02;;;;;;;4.13;3.25;;;23.20;53.30;;;;;;5028125;28;20136;-68
2021/09/27 03:09:00;;;;;;;4.00;3.25;;;23.20;53.40;;;;;;5026982;28;20091;-68
2021/09/27 03:12:05;;;;;;;3.75;3.45;;;23.20;53.40;;;;;;5015491;28;20554;-67
2021/09/27 03:14:57;;;;;;;4.40;3.90;;;23.20;53.40;;;;;;5026541;28;20041;-68
2021/09/27 03:17:45;;;;;;;7.15;3.65;;;23.20;53.40;;;;;;5026436;28;20132;-68
2021/09/27 03:20:36;;;;;;;4.20;3.80;;;23.20;53.40;;;;;;5021817;28;20696;-67
2021/09/27 03:23:43;;;;;;;4.07;3.67;;;23.20;53.40;;;;;;5024816;28;20483;-68
2021/09/27 03:26:26;;;;;;;3.78;3.47;;;23.20;53.40;;;;;;5027338;28;20041;-68
2021/09/27 03:29:11;;;;;;;4.85;3.50;;;23.20;53.40;;;;;;5026893;28;20053;-69
2021/09/27 03:31:58;;;;;;;4.15;3.75;;;23.20;53.30;;;;;;5016596;28;20510;-68
2021/09/27 03:34:44;;;;;;;4.57;3.55;;;23.20;53.30;;;;;;5027364;28;20233;-68
2021/09/27 03:37:46;;;;;;;4.35;3.65;;;23.20;53.40;;;;;;5027272;28;20127;-68
2021/09/27 03:40:44;;;;;;;5.68;3.63;;;23.20;53.30;;;;;;5020402;28;20655;-67
2021/09/27 03:43:26;;;;;;;4.28;3.78;;;23.20;53.30;;;;;;5023637;28;20134;-68
2021/09/27 03:46:37;;;;;;;4.07;3.70;;;23.20;53.30;;;;;;5027033;28;20441;-68
2021/09/27 03:49:27;;;;;;;4.55;3.42;;;23.20;53.30;;;;;;5027335;28;20192;-69
2021/09/27 03:52:04;;;;;;;3.67;3.33;;;23.20;53.30;;;;;;5016097;28;20046;-68
2021/09/27 03:54:50;;;;;;;4.05;3.65;;;23.20;53.30;;;;;;5025817;28;20133;-68
2021/09/27 03:57:32;;;;;;;4.13;3.72;;;23.20;53.30;;;;;;5027600;28;20708;-68
2021/09/27 04:00:08;;;;;;;4.72;4.00;;;23.20;53.30;;;;;;5022063;28;20511;-69
2021/09/27 04:02:53;;;;;;;4.82;3.75;;;23.20;53.30;;;;;;5020619;28;20050;-68
2021/09/27 04:05:48;;;;;;;4.43;3.72;;;23.20;53.30;;;;;;5027003;28;20129;-68
2021/09/27 04:08:36;;;;;;;3.30;3.10;;;23.20;53.30;;;;;;5025664;28;20145;-68
2021/09/27 04:11:29;;;;;;;4.47;3.42;;;23.20;53.30;;;;;;5016432;28;20045;-69
2021/09/27 04:14:27;;;;;;;3.67;3.38;;;23.20;53.30;;;;;;5027081;28;20051;-68
2021/09/27 04:17:11;;;;;;;3.65;3.35;;;23.20;53.30;;;;;;5027009;28;20052;-68
2021/09/27 04:20:07;;;;;;;4.30;3.67;;;23.20;53.30;;;;;;5022652;28;20060;-65
2021/09/27 04:22:39;;;;;;;4.00;3.30;;;23.20;53.30;;;;;;5021398;28;20088;-68
2021/09/27 04:25:18;;;;;;;4.32;3.60;;;23.20;53.30;;;;;;5026069;28;20132;-68
2021/09/27 04:28:25;;;;;;;3.90;3.55;;;23.20;53.30;;;;;;5023960;28;20046;-68
2021/09/27 04:31:28;;;;;;;3.65;3.35;;;23.20;53.30;;;;;;5017680;28;20089;-67
2021/09/27 04:34:28;;;;;;;4.10;3.60;;;23.20;53.90;;;;;;5026359;28;20060;-68
2021/09/27 04:36:57;;;;;;;3.83;3.53;;;23.10;53.40;;;;;;5026171;28;20055;-68
2021/09/27 04:39:28;;;;;;;3.87;3.53;;;23.20;53.40;;;;;;5026799;28;20136;-68
2021/09/27 04:42:35;;;;;;;4.38;3.22;;;23.20;53.40;;;;;;5020543;28;20045;-68
2021/09/27 04:45:21;;;;;;;3.70;3.40;;;23.20;53.40;;;;;;5030085;28;20547;-68
2021/09/27 04:48:22;;;;;;;6.22;3.70;;;23.20;53.40;;;;;;5040508;28;20053;-68
2021/09/27 04:51:16;;;;;;;6.88;3.65;;;23.20;53.40;;;;;;5027384;28;20120;-69
2021/09/27 04:54:20;;;;;;;4.30;3.38;;;23.20;53.40;;;;;;5037755;28;20467;-65
2021/09/27 04:57:25;;;;;;;4.57;3.60;;;23.20;53.40;;;;;;5025412;28;20490;-64
2021/09/27 05:00:16;;;;;;;4.72;4.22;;;23.30;53.40;;;;;;5008243;28;20092;-64
2021/09/27 05:03:19;;;;;;;3.88;3.38;;;23.30;53.30;;;;;;5011080;28;20077;-65
2021/09/27 05:06:23;;;;;;;3.67;3.30;;;23.30;53.20;;;;;;5029975;28;20435;-65
2021/09/27 05:09:27;;;;;;;4.53;3.60;;;23.30;53.80;;;;;;5014802;28;20133;-65
2021/09/27 05:12:15;;;;;;;6.55;3.65;;;23.30;53.60;;;;;;5017314;28;20072;-64
2021/09/27 05:15:10;;;;;;;4.03;3.60;;;23.30;53.90;;;;;;5027071;28;20236;-65
2021/09/27 05:18:08;;;;;;;5.75;3.80;;;23.30;53.90;;;;;;5027495;28;20049;-61
2021/09/27 05:21:09;;;;;;;5.85;4.13;;;23.30;54.10;;;;;;5010912;28;20695;-66
2021/09/27 05:24:02;;;;;;;5.20;4.05;;;23.30;54.20;;;;;;5022793;28;20164;-68
2021/09/27 05:26:48;;;;;;;6.65;4.07;;;23.30;54.50;;;;;;5019102;28;20041;-67
2021/09/27 05:29:52;;;;;;;12.48;4.90;;;23.30;54.90;;;;;;5021280;28;20049;-69
2021/09/27 05:32:47;;;;;;;5.38;4.07;;;23.30;55.30;;;;;;5012040;28;20045;-67
2021/09/27 05:35:34;;;;;;;9.45;4.07;;;23.40;55.70;;;;;;5019142;28;20075;-67
2021/09/27 05:38:16;;;;;;;6.68;4.47;;;23.40;55.80;;;;;;5016969;28;20461;-66
2021/09/27 05:41:14;;;;;;;7.50;4.80;;;23.50;56.00;;;;;;5010095;28;20052;-67
2021/09/27 05:44:17;;;;;;;10.18;4.70;;;23.50;56.00;;;;;;5021157;28;20557;-66
2021/09/27 05:47:20;;;;;;;5.57;4.78;;;23.50;55.80;;;;;;5016907;28;20677;-67
2021/09/27 05:50:06;;;;;;;7.93;4.93;;;23.50;55.70;;;;;;5015153;28;20060;-67
2021/09/27 05:52:51;;;;;;;10.18;4.63;;;23.60;55.80;;;;;;5012773;28;20033;-68
2021/09/27 05:55:34;;;;;;;9.55;4.78;;;23.60;55.80;;;;;;5018497;28;20203;-68
2021/09/27 05:58:25;;;;;;;7.50;4.53;;;23.60;55.80;;;;;;5017086;28;20467;-66
2021/09/27 06:01:24;;;;;;;6.85;5.18;;;23.60;55.90;;;;;;5014248;28;20060;-70
2021/09/27 06:04:14;;;;;;;9.95;4.90;;;23.70;56.00;;;;;;5016133;28;20441;-66
2021/09/27 06:06:55;;;;;;;7.63;4.75;;;23.70;56.20;;;;;;5017368;28;20459;-67
2021/09/27 06:09:39;;;;;;;15.27;4.72;;;23.70;56.30;;;;;;5020740;28;20053;-69
2021/09/27 06:12:28;;;;;;;8.68;4.72;;;23.80;56.30;;;;;;5008793;28;20049;-67
2021/09/27 06:15:00;;;;;;;9.52;5.10;;;23.80;56.30;;;;;;5048603;28;20843;-69
2021/09/27 06:17:57;;;;;;;9.25;3.92;;;23.80;56.30;;;;;;5020212;28;20586;-71
2021/09/27 06:20:39;;;;;;;5.75;3.92;;;23.90;56.30;;;;;;5009883;28;20103;-67
2021/09/27 06:23:27;;;;;;;9.90;4.30;;;23.90;56.30;;;;;;5018495;28;20048;-71
2021/09/27 06:26:08;;;;;;;12.10;4.32;;;23.90;56.30;;;;;;5020768;28;20123;-68
2021/09/27 06:28:53;;;;;;;11.13;4.22;;;24.00;56.40;;;;;;5018522;28;20045;-70
2021/09/27 06:31:43;;;;;;;11.13;4.25;;;24.00;56.40;;;;;;5005269;28;20077;-73
2021/09/27 06:34:23;;;;;;;11.82;4.72;;;24.10;56.20;;;;;;5022067;28;20052;-68
2021/09/27 06:36:50;;;;;;;7.47;3.92;;;24.10;56.10;;;;;;5017937;28;20136;-65
2021/09/27 06:39:27;;;;;;;10.02;4.15;;;24.10;56.10;;;;;;5018680;28;20518;-68
2021/09/27 06:41:54;;;;;;;7.30;4.20;;;24.10;56.10;;;;;;5000708;28;20127;-64
2021/09/27 06:44:23;;;;;;;11.25;4.10;;;24.20;56.10;;;;;;5018350;28;20089;-64
2021/09/27 06:46:52;;;;;;;4.72;3.83;;;24.20;56.10;;;;;;5020420;28;20077;-65
2021/09/27 06:49:21;;;;;;;6.65;3.95;;;24.20;56.10;;;;;;5015208;28;20107;-64
2021/09/27 06:51:48;;;;;;;8.15;4.07;;;24.20;56.00;;;;;;5004233;28;20164;-72
2021/09/27 06:54:18;;;;;;;8.80;4.85;;;24.30;56.10;;;;;;5015457;28;20136;-65
2021/09/27 06:56:46;;;;;;;12.45;4.60;;;24.30;56.30;;;;;;5023002;28;20089;-66
2021/09/27 06:59:20;;;;;;;16.40;4.47;;;24.30;56.30;;;;;;5013662;28;20401;-68
2021/09/27 07:01:49;;;;;;;6.57;4.10;;;24.30;56.00;;;;;;5003614;28;20528;-65
2021/09/27 07:04:17;;;;;;;9.13;3.38;;;24.40;56.00;;;;;;5019551;28;20054;-67
2021/09/27 07:06:45;;;;;;;9.43;4.25;;;24.40;55.90;;;;;;5019425;28;20060;-64
2021/09/27 07:09:12;;;;;;;6.20;3.97;;;24.40;56.00;;;;;;5016574;28;20157;-62
2021/09/27 07:11:41;;;;;;;8.85;4.22;;;24.40;55.70;;;;;;5005557;28;20068;-62
2021/09/27 07:14:10;;;;;;;8.98;3.70;;;24.50;55.90;;;;;;5017178;28;20072;-63
2021/09/27 07:16:38;;;;;;;6.25;3.78;;;24.50;55.90;;;;;;5016630;28;20517;-64
2021/09/27 07:19:07;;;;;;;7.97;3.40;;;24.50;55.60;;;;;;5017833;28;20147;-65
2021/09/27 07:21:36;;;;;;;6.47;4.45;;;24.50;55.50;;;;;;5026745;28;20144;-64
2021/09/27 07:24:05;;;;;;;7.97;3.90;;;24.60;55.50;;;;;;5017826;28;20081;-64
2021/09/27 07:26:33;;;;;;;11.00;4.00;;;24.50;55.40;;;;;;5017229;28;20406;-65
2021/09/27 07:29:02;;;;;;;14.65;4.35;;;24.60;55.50;;;;;;5022157;28;20049;-64
2021/09/27 07:31:31;;;;;;;7.28;3.90;;;24.60;55.40;;;;;;5010186;28;20072;-62
2021/09/27 07:34:01;;;;;;;6.38;4.07;;;24.70;55.50;;;;;;5014035;28;20095;-65
2021/09/27 07:36:29;;;;;;;6.38;3.53;;;24.60;55.40;;;;;;5015025;28;20131;-67
2021/09/27 07:38:56;;;;;;;10.25;4.82;;;24.70;55.40;;;;;;5014372;28;20107;-66
2021/09/27 07:41:25;;;;;;;8.20;3.80;;;24.70;55.60;;;;;;5002414;28;20053;-67
2021/09/27 07:43:54;;;;;;;7.07;3.53;;;24.70;55.50;;;;;;5009916;28;20056;-66
2021/09/27 07:46:22;;;;;;;4.85;3.15;;;24.70;55.50;;;;;;5015439;28;20623;-66
2021/09/27 07:48:50;;;;;;;4.25;3.42;;;24.70;55.50;;;;;;5020202;28;20085;-67
2021/09/27 07:51:20;;;;;;;5.88;3.70;;;24.80;55.50;;;;;;5003418;28;20103;-67
2021/09/27 07:53:47;;;;;;;7.80;3.38;;;24.80;55.40;;;;;;5013440;28;20132;-67
2021/09/27 07:56:15;;;;;;;5.68;3.47;;;24.80;55.40;;;;;;5015274;28;20448;-68
2021/09/27 07:58:42;;;;;;;4.78;3.25;;;24.80;55.20;;;;;;5011097;28;20129;-68
2021/09/27 08:01:10;;;;;;;6.60;3.80;;;24.80;55.30;;;;;;4999625;28;20271;-68
2021/09/27 08:03:37;;;;;;;5.45;3.10;;;24.90;55.20;;;;;;5012009;28;20479;-69
2021/09/27 08:06:05;;;;;;;8.50;3.63;;;24.80;55.00;;;;;;5017338;28;20053;-68
2021/09/27 08:08:32;;;;;;;5.97;4.05;;;24.80;55.20;;;;;;5016978;28;20081;-67
2021/09/27 08:11:00;;;;;;;4.63;3.78;;;24.90;55.20;;;;;;5006297;28;20099;-70
2021/09/27 08:13:27;;;;;;;6.28;3.88;;;24.90;55.20;;;;;;5008410;28;20061;-68
2021/09/27 08:15:55;;;;;;;11.85;4.50;;;24.90;55.40;;;;;;5012902;28;20048;-67
2021/09/27 08:18:23;;;;;;;7.80;4.20;;;24.90;55.50;;;;;;5013763;28;20065;-69
2021/09/27 08:20:58;;;;;;;10.10;4.05;;;24.90;55.80;;;;;;5007815;28;20057;-71
2021/09/27 08:23:26;;;;;;;10.13;4.13;;;24.80;55.90;;;;;;5023002;28;20041;-67
2021/09/27 08:25:54;;;;;;;9.77;4.43;;;24.80;56.10;;;;;;5029168;28;20486;-72
2021/09/27 08:28:25;;;;;;;7.55;3.72;;;24.80;56.10;;;;;;5020666;28;20136;-67
2021/09/27 08:30:57;;;;;;;5.90;3.28;;;24.80;56.10;;;;;;5009533;28;20053;-69
2021/09/27 08:33:25;;;;;;;12.13;5.25;;;24.80;56.10;;;;;;5016310;28;20077;-68
2021/09/27 08:35:53;;;;;;;6.55;4.38;;;24.80;56.10;;;;;;5022089;28;20080;-68
2021/09/27 08:38:23;;;;;;;10.10;4.60;;;24.80;56.20;;;;;;5026103;28;20707;-69
2021/09/27 08:41:27;;;;;;;10.38;4.30;;;24.80;56.30;;;;;;5012304;28;20822;-68
2021/09/27 08:44:25;;;;;;;11.05;4.57;;;24.80;56.40;;;;;;5022084;28;20141;-69
2021/09/27 08:46:59;;;;;;;9.10;4.25;;;24.80;56.80;;;;;;5022477;28;20490;-71
2021/09/27 08:50:00;;;;;;;10.90;4.68;;;24.70;56.80;;;;;;5021929;28;20584;-70
2021/09/27 08:52:33;;;;;;;10.85;4.43;;;24.70;56.90;;;;;;5008238;28;20057;-70
2021/09/27 08:55:04;;;;;;;7.30;4.18;;;24.70;56.90;;;;;;5022736;28;20049;-74
2021/09/27 08:57:50;;;;;;;11.35;4.38;;;24.70;57.00;;;;;;5020428;28;20081;-67
2021/09/27 09:00:56;;;;;;;9.18;4.53;;;24.70;57.10;;;;;;5005113;28;20131;-67
2021/09/27 09:03:44;;;;;;;11.00;4.97;;;24.80;56.90;;;;;;5009337;28;20498;-68
2021/09/27 09:06:29;;;;;;;12.38;5.28;;;24.80;56.80;;;;;;5022069;28;20160;-66
2021/09/27 09:09:15;;;;;;;11.40;4.60;;;24.80;56.80;;;;;;5028216;28;20055;-65
2021/09/27 09:11:53;;;;;;;11.73;4.40;;;24.80;56.70;;;;;;5002605;28;20670;-64
2021/09/27 09:14:44;;;;;;;6.72;4.18;;;24.90;56.60;;;;;;5021086;28;20052;-64
2021/09/27 09:17:22;;;;;;;22.80;5.20;;;24.90;56.30;;;;;;5021947;28;20046;-64
2021/09/27 09:19:50;;;;;;;7.38;3.50;;;25.00;56.20;;;;;;5020066;28;20056;-63
2021/09/27 09:22:30;;;;;;;9.32;4.57;;;25.10;56.10;;;;;;5007829;28;20103;-68
2021/09/27 09:24:57;;;;;;;6.50;3.90;;;25.20;55.80;;;;;;5019269;28;20065;-69
2021/09/27 09:27:25;;;;;;;6.38;3.75;;;25.30;55.40;;;;;;5020945;28;20076;-67
2021/09/27 09:29:53;;;;;;;7.50;4.45;;;25.40;55.40;;;;;;5020648;28;20676;-68
2021/09/27 09:32:25;;;;;;;9.13;4.40;;;25.40;55.20;;;;;;5002312;28;20120;-66
2021/09/27 09:35:12;;;;;;;7.05;3.53;;;25.50;54.90;;;;;;5019555;28;20081;-71
2021/09/27 09:37:45;;;;;;;7.65;4.05;;;25.50;54.80;;;;;;5023031;28;20132;-68
2021/09/27 09:40:24;;;;;;;11.35;5.13;;;25.50;54.60;;;;;;5015432;28;20054;-69
2021/09/27 09:43:06;;;;;;;9.18;3.65;;;25.60;54.60;;;;;;5005977;28;20053;-70
2021/09/27 09:45:36;;;;;;;7.97;3.53;;;25.60;54.50;;;;;;5018511;28;20144;-68
2021/09/27 09:48:18;;;;;;;10.57;4.60;;;25.60;54.40;;;;;;5019610;28;20049;-69
2021/09/27 09:50:49;;;;;;;9.15;5.03;;;25.70;54.20;;;;;;5006865;28;20494;-71
2021/09/27 09:53:31;;;;;;;8.43;4.28;;;25.70;54.10;;;;;;5020601;28;20050;-72
2021/09/27 09:56:03;;;;;;;12.55;5.15;;;25.70;54.10;;;;;;5023848;28;20136;-68
2021/09/27 09:58:42;;;;;;;6.57;4.07;;;25.70;53.90;;;;;;5025156;28;20042;-72
2021/09/27 10:01:33;;;;;;;8.93;4.45;;;25.80;53.90;;;;;;5010356;28;20092;-69
2021/09/27 10:04:07;;;;;;;8.30;4.22;;;25.80;53.80;;;;;;5019922;28;20048;-66
2021/09/27 10:06:54;;;;;;;8.73;4.13;;;25.80;53.70;;;;;;5025813;28;20053;-67
2021/09/27 10:09:34;;;;;;;8.20;4.32;;;25.80;53.80;;;;;;5019793;28;20087;-66
2021/09/27 10:12:05;;;;;;;6.93;4.20;;;25.80;53.70;;;;;;5003036;28;20065;-67
2021/09/27 10:14:37;;;;;;;7.22;3.40;;;25.80;53.70;;;;;;5021054;28;20049;-67
2021/09/27 10:17:17;;;;;;;7.93;3.60;;;25.80;53.60;;;;;;5020697;28;20049;-67
2021/09/27 10:19:55;;;;;;;8.48;4.15;;;25.80;53.40;;;;;;5018289;28;20099;-67
2021/09/27 10:22:27;;;;;;;4.68;3.80;;;25.80;53.80;;;;;;5001177;28;20063;-68
2021/09/27 10:24:58;;;;;;;14.43;4.50;;;25.90;53.80;;;;;;5022017;28;20395;-67
2021/09/27 10:27:40;;;;;;;8.15;3.58;;;25.80;53.60;;;;;;5016846;28;20045;-68
2021/09/27 10:30:14;;;;;;;5.43;3.60;;;25.80;53.40;;;;;;5017726;28;20053;-67
2021/09/27 10:32:55;;;;;;;8.45;3.40;;;25.80;53.40;;;;;;5020889;28;20045;-68
2021/09/27 10:35:38;;;;;;;7.70;4.15;;;25.80;53.40;;;;;;5025030;28;20072;-68
2021/09/27 10:38:10;;;;;;;5.93;4.43;;;25.90;53.40;;;;;;5026389;28;20517;-67
2021/09/27 10:40:40;;;;;;;8.32;3.78;;;26.00;53.60;;;;;;5006174;28;20049;-66
2021/09/27 10:43:14;;;;;;;6.10;3.55;;;26.00;53.50;;;;;;5019507;28;20037;-68
2021/09/27 10:45:43;;;;;;;6.57;4.13;;;26.10;53.50;;;;;;5023303;28;20136;-68
2021/09/27 10:48:10;;;;;;;5.88;3.78;;;26.10;53.50;;;;;;5019280;28;20048;-66
2021/09/27 10:50:56;;;;;;;5.18;3.75;;;26.20;53.10;;;;;;5008747;28;20053;-68
2021/09/27 10:53:43;;;;;;;3.65;3.33;;;26.30;53.10;;;;;;5016668;28;20087;-68
2021/09/27 10:56:38;;;;;;;5.60;3.30;;;26.30;52.60;;;;;;5022570;28;20406;-67
2021/09/27 10:59:11;;;;;;;9.07;4.38;;;26.40;52.70;;;;;;5019664;28;20146;-70
2021/09/27 11:01:51;;;;;;;6.82;3.58;;;26.40;52.50;;;;;;5006051;28;20072;-70
2021/09/27 11:04:30;;;;;;;5.30;3.83;;;26.40;52.30;;;;;;5017536;28;20473;-70
2021/09/27 11:07:00;;;;;;;8.02;4.20;;;26.50;52.40;;;;;;5023699;28;20102;-69
2021/09/27 11:09:39;;;;;;;5.43;3.90;;;26.50;52.40;;;;;;5020129;28;20129;-68
2021/09/27 11:12:32;;;;;;;6.85;4.53;;;26.50;52.40;;;;;;5010539;28;20452;-70
2021/09/27 11:15:22;;;;;;;9.40;4.55;;;26.50;52.20;;;;;;5026249;28;20084;-69
2021/09/27 11:18:01;;;;;;;;;;;26.50;52.10;;;;;;5023805;28;20506;-65
2021/09/27 11:21:02;;;;;;;10.25;4.40;;;26.50;52.10;;;;;;5013559;28;20361;-68
2021/09/27 11:23:36;;;;;;;5.63;3.80;;;26.50;52.20;;;;;;5019237;28;20111;-70
2021/09/27 11:26:29;;;;;;;7.22;4.60;;;26.50;52.20;;;;;;5023466;28;20071;-66
2021/09/27 11:29:21;;;;;;;9.85;5.03;;;26.50;52.20;;;;;;5018036;28;20136;-67
2021/09/27 11:32:28;;;;;;;6.03;4.50;;;26.50;52.30;;;;;;4999887;28;20145;-67
2021/09/27 11:35:35;;;;;;;6.75;4.35;;;26.60;52.40;;;;;;5020895;28;20054;-67
2021/09/27 11:38:32;;;;;;;8.02;4.57;;;26.50;52.20;;;;;;5017985;28;20493;-66
2021/09/27 11:41:23;;;;;;;4.13;3.72;;;26.50;52.20;;;;;;5006109;28;20655;-66
2021/09/27 11:44:18;;;;;;;6.72;4.57;;;26.60;52.20;;;;;;5019986;28;20107;-66
2021/09/27 11:47:03;;;;;;;5.25;4.20;;;26.50;52.10;;;;;;5017359;28;20049;-67
2021/09/27 11:50:09;;;;;;;7.63;4.63;;;26.50;52.10;;;;;;5017345;28;20037;-68
2021/09/27 11:52:48;;;;;;;6.35;4.63;;;26.50;52.10;;;;;;5013128;28;20580;-67
2021/09/27 11:55:26;;;;;;;7.65;4.63;;;26.50;52.10;;;;;;5025259;28;20140;-67
2021/09/27 11:58:17;;;;;;;4.95;4.30;;;26.50;52.10;;;;;;5025648;28;20554;-68
2021/09/27 12:00:58;;;;;;;6.63;4.70;;;26.50;52.10;;;;;;5015544;28;20099;-69
2021/09/27 12:03:56;;;;;;;4.88;4.05;;;26.50;52.40;;;;;;5017943;28;20064;-65
2021/09/27 12:06:30;;;;;;;6.55;4.40;;;26.50;52.30;;;;;;5023077;28;20076;-72
2021/09/27 12:09:12;;;;;;;10.30;5.53;;;26.50;52.60;;;;;;5018627;28;20073;-66
2021/09/27 12:11:48;;;;;;;8.77;6.20;;;26.40;53.00;;;;;;5009507;28;20467;-71
2021/09/27 12:14:34;;;;;;;8.35;6.45;;;26.40;53.90;;;;;;5017537;28;20058;-74
2021/09/27 12:17:05;;;;;;;8.68;6.75;;;26.30;53.80;;;;;;5023581;28;20434;-71
2021/09/27 12:19:34;;;;;;;9.18;6.72;;;26.20;54.10;;;;;;5022634;28;20084;-67
2021/09/27 12:22:06;;;;;;;9.70;6.75;;;26.10;54.00;;;;;;5012759;28;20054;-71
2021/09/27 12:24:37;;;;;;;6.88;5.25;;;26.10;53.80;;;;;;5024438;28;20383;-69
2021/09/27 12:27:12;;;;;;;10.05;6.40;;;26.10;53.80;;;;;;5023097;28;20136;-67
2021/09/27 12:30:03;;;;;;;7.07;4.85;;;26.10;53.70;;;;;;5023205;28;20042;-65
2021/09/27 12:32:35;;;;;;;8.10;5.15;;;26.20;54.10;;;;;;5017264;28;20073;-64
2021/09/27 12:35:10;;;;;;;7.43;4.78;;;26.10;54.20;;;;;;5023251;28;20052;-66
2021/09/27 12:37:40;;;;;;;7.95;5.68;;;26.10;54.70;;;;;;5029327;28;20045;-65
2021/09/27 12:40:11;;;;;;;5.72;5.15;;;26.10;54.50;;;;;;5019432;28;20139;-65
2021/09/27 12:42:50;;;;;;;9.85;5.32;;;26.10;54.10;;;;;;5013496;28;20152;-66
2021/09/27 12:45:44;;;;;;;5.28;4.78;;;26.10;53.90;;;;;;5022171;28;20474;-64
2021/09/27 12:48:24;;;;;;;6.07;4.50;;;26.10;53.90;;;;;;5022726;28;20200;-64
2021/09/27 12:51:20;;;;;;;5.75;4.97;;;26.10;54.00;;;;;;5014231;28;20045;-63
2021/09/27 12:54:01;;;;;;;6.43;5.20;;;26.10;53.90;;;;;;5019248;28;20423;-64
2021/09/27 12:56:30;;;;;;;6.53;5.15;;;26.10;53.90;;;;;;5027684;28;20076;-65
2021/09/27 12:59:04;;;;;;;6.28;5.18;;;26.10;54.10;;;;;;5020378;28;20084;-63
2021/09/27 13:01:47;;;;;;;5.70;5.05;;;26.10;54.30;;;;;;5004295;28;20528;-65
2021/09/27 13:04:33;;;;;;;6.10;5.05;;;26.10;54.30;;;;;;5020738;28;20047;-62
2021/09/27 13:07:07;;;;;;;5.38;4.88;;;26.00;54.50;;;;;;5024921;28;20053;-65
2021/09/27 13:09:40;;;;;;;5.88;4.80;;;26.00;54.30;;;;;;5016454;28;20447;-64
2021/09/27 13:12:21;;;;;;;6.47;4.88;;;26.00;54.30;;;;;;5010603;28;21413;-65
2021/09/27 13:14:58;;;;;;;8.43;5.65;;;26.00;54.40;;;;;;5020080;28;20073;-64
2021/09/27 13:17:27;;;;;;;9.95;4.85;;;26.00;54.60;;;;;;5021438;28;20128;-64
2021/09/27 13:19:58;;;;;;;7.67;5.80;;;26.00;54.70;;;;;;5018539;28;20073;-65
2021/09/27 13:22:45;;;;;;;7.28;5.28;;;26.00;54.90;;;;;;5013376;28;20298;-64
2021/09/27 13:25:21;;;;;;;8.30;5.28;;;26.00;54.80;;;;;;5037779;28;20060;-64
2021/09/27 13:27:54;;;;;;;19.83;5.57;;;26.00;55.10;;;;;;5021106;28;20080;-63
2021/09/27 13:30:29;;;;;;;7.20;5.40;;;25.90;55.10;;;;;;5013666;28;20054;-66
2021/09/27 13:33:06;;;;;;;5.28;4.57;;;26.00;55.10;;;;;;5015797;28;20110;-66
2021/09/27 13:35:40;;;;;;;6.25;5.43;;;26.00;55.00;;;;;;5019140;28;20545;-63
2021/09/27 13:38:13;;;;;;;9.70;5.00;;;26.00;55.00;;;;;;5020505;28;20379;-67
2021/09/27 13:41:03;;;;;;;7.07;5.55;;;26.00;55.00;;;;;;5018725;28;20155;-66
2021/09/27 13:43:45;;;;;;;6.72;5.32;;;26.00;55.00;;;;;;5014127;28;20077;-66
2021/09/27 13:46:23;;;;;;;8.98;5.43;;;26.00;55.20;;;;;;5023106;28;20050;-63
2021/09/27 13:48:54;;;;;;;10.98;6.20;;;26.00;55.10;;;;;;5022499;28;20075;-65
2021/09/27 13:51:25;;;;;;;14.45;6.80;;;26.00;55.20;;;;;;5008804;28;20053;-63
2021/09/27 13:54:03;;;;;;;8.60;6.28;;;26.10;55.10;;;;;;5027278;28;20128;-65
2021/09/27 13:56:35;;;;;;;7.10;6.20;;;26.10;55.00;;;;;;5022807;28;20076;-64